Jerome, Michigan
Current Conditions -  °F | °C
As of 11:35 PM on Tuesday 21 Oct 2014 (Local Time) from KJYM Reporting Station
Overcast Overcast  
Wind Chill: 42°   Ceiling: 4900
Heat Index: 42°   Visibility: 10mi
Dew Point: 38°   Wind: 3mph
Humidity: 86%   Direction: 340°NNW
Pressure: 30.23"   Gusts: NA
Location:  42.03°N, 84.47°W
Report Text: KJYM 220335Z AUTO 34003KT 10SM OVC049 06/04 A3023 RMK AO2 T00570035
Loading
Personal Weather Stations






























Interactive Weather Map New forecast layout! Learn more

10-Day Weather Forecast

Advertisements
Track Severe Weather on mobile